Palermo, Italy
Current Conditions -  °F | °C
As of 9:50 PM on Saturday 25 Oct 2014 (Local Time) from LICJ Reporting Station
Few Clouds Few Clouds  
Wind Chill: 68°   Ceiling: Unl
Heat Index: 68°   Visibility: 6mi
Dew Point: 54°   Wind: 12mph
Humidity: 60%   Direction: 350°N
Pressure: 30.06"   Gusts: NA
Location:  38.12°N, 13.36°E
Report Text: LICJ 251950Z 35010KT 9999 FEW025 20/12 Q1018
Loading
Personal Weather Stations






























Interactive Weather Map
Tropical Storm Tracking
New forecast layout! Learn more

10-Day Weather Forecast

Advertisements
Track Severe Weather on mobile